createdAt,value
2019-01-16T00:00:39.126Z,951.91
2019-01-16T00:03:05.431Z,951.90
2019-01-16T00:05:31.738Z,951.90
2019-01-16T00:07:58.104Z,951.92
2019-01-16T00:10:24.401Z,951.98
2019-01-16T00:12:50.706Z,951.93
2019-01-16T00:15:17.055Z,952.06
2019-01-16T00:17:43.318Z,952.05
2019-01-16T00:20:09.621Z,951.98
2019-01-16T00:22:35.906Z,951.92
2019-01-16T00:25:02.204Z,951.97
2019-01-16T00:27:28.501Z,951.87
2019-01-16T00:29:54.814Z,951.86
2019-01-16T00:32:21.126Z,951.88
2019-01-16T00:34:47.493Z,951.86
2019-01-16T00:37:13.756Z,951.87
2019-01-16T00:39:40.070Z,951.84
2019-01-16T00:42:06.367Z,951.86
2019-01-16T00:44:32.677Z,951.86
2019-01-16T00:46:59.010Z,951.84
2019-01-16T00:49:25.312Z,951.88
2019-01-16T00:51:51.618Z,951.89
2019-01-16T00:54:17.920Z,951.88
2019-01-16T00:56:44.212Z,951.97
2019-01-16T00:59:10.567Z,952.02
2019-01-16T01:01:36.815Z,952.04
2019-01-16T01:04:03.116Z,952.03
2019-01-16T01:06:29.417Z,952.04
2019-01-16T01:08:55.725Z,952.08
2019-01-16T01:11:22.038Z,951.92
2019-01-16T01:13:48.380Z,951.93
2019-01-16T01:16:14.667Z,951.92
2019-01-16T01:18:41.274Z,951.89
2019-01-16T01:21:07.287Z,951.90
2019-01-16T01:23:33.583Z,951.86
2019-01-16T01:25:59.883Z,951.84
2019-01-16T01:28:26.180Z,951.82
2019-01-16T01:30:52.500Z,951.84
2019-01-16T01:33:18.819Z,951.83
2019-01-16T01:35:45.145Z,951.81
2019-01-16T01:38:11.469Z,951.80
2019-01-16T01:40:37.763Z,951.75
2019-01-16T01:43:04.077Z,951.81
2019-01-16T01:45:30.384Z,951.71
2019-01-16T01:47:56.687Z,951.74
2019-01-16T01:50:22.998Z,951.73
2019-01-16T01:52:49.345Z,951.76
2019-01-16T01:55:15.643Z,951.84
2019-01-16T01:57:41.959Z,951.74
2019-01-16T02:00:08.298Z,951.80
2019-01-16T02:02:34.615Z,951.81
2019-01-16T02:05:00.926Z,951.77
2019-01-16T02:07:27.232Z,951.79
2019-01-16T02:09:53.551Z,951.71
2019-01-16T02:12:19.853Z,951.58
2019-01-16T02:14:46.155Z,951.56
2019-01-16T02:17:12.454Z,951.59
2019-01-16T02:19:38.783Z,951.55
2019-01-16T02:22:05.106Z,951.54
2019-01-16T02:24:31.408Z,951.53
2019-01-16T02:26:57.718Z,951.49
2019-01-16T02:29:24.066Z,951.55
2019-01-16T02:31:50.366Z,951.57
2019-01-16T02:34:16.666Z,951.61
2019-01-16T02:36:42.964Z,951.57
2019-01-16T02:39:09.265Z,951.55
2019-01-16T02:41:35.578Z,951.44
2019-01-16T02:44:01.889Z,951.49
2019-01-16T02:46:28.198Z,951.51
2019-01-16T02:48:56.296Z,951.48
2019-01-16T02:51:20.840Z,951.44
2019-01-16T02:53:47.131Z,951.39
2019-01-16T02:56:13.477Z,951.40
2019-01-16T02:58:39.790Z,951.41
2019-01-16T03:01:06.097Z,951.32
2019-01-16T03:03:32.409Z,951.36
2019-01-16T03:05:58.722Z,951.33
2019-01-16T03:08:25.016Z,951.35
2019-01-16T03:10:51.337Z,951.35
2019-01-16T03:13:17.633Z,951.16
2019-01-16T03:15:43.944Z,951.14
2019-01-16T03:18:10.247Z,951.22
2019-01-16T03:20:36.566Z,951.20
2019-01-16T03:23:02.874Z,951.20
2019-01-16T03:25:29.193Z,951.20
2019-01-16T03:27:55.488Z,951.20
2019-01-16T03:30:21.795Z,951.24
2019-01-16T03:32:48.111Z,951.26
2019-01-16T03:35:14.413Z,951.29
2019-01-16T03:37:40.706Z,951.42
2019-01-16T03:40:07.007Z,951.37
2019-01-16T03:42:33.314Z,951.33
2019-01-16T03:44:59.600Z,951.44
2019-01-16T03:47:25.934Z,951.39
2019-01-16T03:49:52.234Z,951.44
2019-01-16T03:52:18.541Z,951.38
2019-01-16T03:54:44.846Z,951.48
2019-01-16T03:57:11.139Z,951.48
2019-01-16T03:59:37.434Z,951.49
2019-01-16T04:02:03.727Z,951.46
2019-01-16T04:04:30.031Z,951.51
2019-01-16T04:06:56.334Z,951.42
2019-01-16T04:09:22.694Z,951.43
2019-01-16T04:11:48.960Z,951.43
2019-01-16T04:14:15.246Z,951.42
2019-01-16T04:16:41.563Z,951.48
2019-01-16T04:19:07.860Z,951.50
2019-01-16T04:21:34.163Z,951.42
2019-01-16T04:24:00.479Z,951.44
2019-01-16T04:26:26.794Z,951.51
2019-01-16T04:28:53.099Z,951.53
2019-01-16T04:31:19.437Z,951.50
2019-01-16T04:33:45.742Z,951.49
2019-01-16T04:36:12.040Z,951.46
2019-01-16T04:38:38.353Z,951.38
2019-01-16T04:41:04.662Z,951.31
2019-01-16T04:43:30.962Z,951.29
2019-01-16T04:45:57.257Z,951.33
2019-01-16T04:48:23.557Z,951.29
2019-01-16T04:50:49.866Z,951.30
2019-01-16T04:53:16.168Z,951.32
2019-01-16T04:55:42.492Z,951.37
2019-01-16T04:58:08.793Z,951.32
2019-01-16T05:00:35.096Z,951.35
2019-01-16T05:03:01.414Z,951.35
2019-01-16T05:05:27.731Z,951.37
2019-01-16T05:07:54.031Z,951.30
2019-01-16T05:10:20.328Z,951.41
2019-01-16T05:12:46.622Z,951.45
2019-01-16T05:15:12.941Z,951.43
2019-01-16T05:17:39.260Z,951.45
2019-01-16T05:20:05.574Z,951.50
2019-01-16T05:22:31.873Z,951.47
2019-01-16T05:24:58.187Z,951.57
2019-01-16T05:27:24.507Z,951.51
2019-01-16T05:29:50.803Z,951.54
2019-01-16T05:32:17.126Z,951.50
2019-01-16T05:34:43.434Z,951.54
2019-01-16T05:37:09.735Z,951.64
2019-01-16T05:39:36.036Z,951.62
2019-01-16T05:42:02.373Z,951.53
2019-01-16T05:44:28.678Z,951.58
2019-01-16T05:46:54.978Z,951.60
2019-01-16T05:49:21.311Z,951.48
2019-01-16T05:51:47.598Z,951.58
2019-01-16T05:54:13.899Z,951.60
2019-01-16T05:56:40.200Z,951.59
2019-01-16T05:59:06.490Z,951.52
2019-01-16T06:01:32.793Z,951.55
2019-01-16T06:03:59.094Z,951.54
2019-01-16T06:06:25.404Z,951.49
2019-01-16T06:08:51.717Z,951.47
2019-01-16T06:11:18.050Z,951.46
2019-01-16T06:13:44.343Z,951.48
2019-01-16T06:16:10.641Z,951.45
2019-01-16T06:18:36.951Z,951.41
2019-01-16T06:21:03.247Z,951.48
2019-01-16T06:23:29.568Z,951.30
2019-01-16T06:25:55.861Z,951.49
2019-01-16T06:28:22.163Z,951.54
2019-01-16T06:30:48.472Z,951.52
2019-01-16T06:33:14.800Z,951.48
2019-01-16T06:35:41.098Z,951.62
2019-01-16T06:38:07.406Z,951.66
2019-01-16T06:40:33.715Z,951.61
2019-01-16T06:43:00.015Z,951.72
2019-01-16T06:45:26.329Z,951.73
2019-01-16T06:47:52.643Z,951.69
2019-01-16T06:50:18.935Z,951.73
2019-01-16T06:52:45.256Z,951.79
2019-01-16T06:55:11.558Z,951.87
2019-01-16T06:57:37.862Z,951.82
2019-01-16T07:00:04.187Z,951.89
2019-01-16T07:02:30.480Z,951.95
2019-01-16T07:04:56.776Z,951.95
2019-01-16T07:07:23.083Z,951.97
2019-01-16T07:09:49.374Z,951.98
2019-01-16T07:12:15.744Z,952.07
2019-01-16T07:14:42.034Z,952.07
2019-01-16T07:17:08.350Z,952.07
2019-01-16T07:19:34.647Z,952.03
2019-01-16T07:22:00.946Z,952.06
2019-01-16T07:24:27.288Z,951.97
2019-01-16T07:26:53.598Z,952.04
2019-01-16T07:29:19.900Z,952.05
2019-01-16T07:31:46.228Z,952.10
2019-01-16T07:34:12.541Z,952.15
2019-01-16T07:36:38.862Z,952.20
2019-01-16T07:39:05.179Z,952.19
2019-01-16T07:41:31.468Z,952.26
2019-01-16T07:43:57.769Z,952.25
2019-01-16T07:46:24.068Z,952.23
2019-01-16T07:48:50.358Z,952.27
2019-01-16T07:51:16.727Z,952.29
2019-01-16T07:53:42.979Z,952.23
2019-01-16T07:56:09.328Z,952.27
2019-01-16T07:58:35.631Z,952.26
2019-01-16T08:01:01.935Z,952.26
2019-01-16T08:03:28.267Z,952.32
2019-01-16T08:05:54.576Z,952.33
2019-01-16T08:08:20.878Z,952.35
2019-01-16T08:10:47.306Z,952.38
2019-01-16T08:13:13.605Z,952.31
2019-01-16T08:15:39.900Z,952.23
2019-01-16T08:18:06.203Z,952.20
2019-01-16T08:20:32.522Z,952.26
2019-01-16T08:22:58.826Z,952.27
2019-01-16T08:25:25.133Z,952.30
2019-01-16T08:27:51.445Z,952.36
2019-01-16T08:30:17.783Z,952.38
2019-01-16T08:32:44.097Z,952.24
2019-01-16T08:35:10.409Z,952.31
2019-01-16T08:37:36.726Z,952.18
2019-01-16T08:40:03.035Z,952.26
2019-01-16T08:42:29.376Z,952.22
2019-01-16T08:44:55.695Z,952.20
2019-01-16T08:47:21.993Z,952.14
2019-01-16T08:49:48.323Z,952.15
2019-01-16T08:52:14.619Z,952.16
2019-01-16T08:54:40.940Z,952.17
2019-01-16T08:57:07.236Z,952.09
2019-01-16T08:59:33.559Z,952.12
2019-01-16T09:01:59.886Z,952.11
2019-01-16T09:04:26.185Z,952.04
2019-01-16T09:06:52.486Z,952.13
2019-01-16T09:09:18.832Z,952.19
2019-01-16T09:11:45.139Z,952.14
2019-01-16T09:14:11.432Z,952.04
2019-01-16T09:16:37.728Z,952.08
2019-01-16T09:19:04.052Z,952.09
2019-01-16T09:21:30.368Z,952.12
2019-01-16T09:23:56.665Z,952.05
2019-01-16T09:26:22.983Z,952.00
2019-01-16T09:28:49.285Z,952.09
2019-01-16T09:31:15.606Z,952.15
2019-01-16T09:33:41.925Z,952.14
2019-01-16T09:36:08.245Z,952.05
2019-01-16T09:38:34.557Z,951.98
2019-01-16T09:41:00.863Z,951.93
2019-01-16T09:43:27.178Z,951.82
2019-01-16T09:45:53.482Z,951.70
2019-01-16T09:48:19.798Z,951.72
2019-01-16T09:50:47.981Z,951.70
2019-01-16T09:53:12.397Z,951.67
2019-01-16T09:55:38.697Z,951.61
2019-01-16T09:58:05.010Z,951.58
2019-01-16T10:00:31.350Z,951.56
2019-01-16T10:02:57.653Z,951.69
2019-01-16T10:05:23.961Z,951.61
2019-01-16T10:07:50.264Z,951.50
2019-01-16T10:10:16.573Z,951.58
2019-01-16T10:12:42.906Z,951.55
2019-01-16T10:15:09.209Z,951.59
2019-01-16T10:17:35.560Z,951.65
2019-01-16T10:20:01.825Z,951.68
2019-01-16T10:22:28.133Z,951.72
2019-01-16T10:24:54.446Z,951.77
2019-01-16T10:27:20.757Z,951.70
2019-01-16T10:29:47.056Z,951.73
2019-01-16T10:32:13.356Z,951.62
2019-01-16T10:34:39.691Z,951.66
2019-01-16T10:37:05.985Z,951.65
2019-01-16T10:39:32.285Z,951.69
2019-01-16T10:41:58.613Z,951.67
2019-01-16T10:44:24.901Z,951.52
2019-01-16T10:46:51.195Z,951.54
2019-01-16T10:49:17.490Z,951.38
2019-01-16T10:51:43.797Z,951.41
2019-01-16T10:54:10.117Z,951.40
2019-01-16T10:56:36.426Z,951.37
2019-01-16T10:59:02.734Z,951.32
2019-01-16T11:01:29.045Z,951.39
2019-01-16T11:03:55.355Z,951.42
2019-01-16T11:06:21.753Z,951.39
2019-01-16T11:08:48.012Z,951.29
2019-01-16T11:11:16.168Z,951.38
2019-01-16T11:13:40.643Z,951.34
2019-01-16T11:16:06.938Z,951.35
2019-01-16T11:18:33.287Z,951.38
2019-01-16T11:20:59.585Z,951.35
2019-01-16T11:23:25.877Z,951.46
2019-01-16T11:25:52.171Z,951.50
2019-01-16T11:28:18.586Z,951.38
2019-01-16T11:30:44.781Z,951.38
2019-01-16T11:33:11.083Z,951.45
2019-01-16T11:35:37.385Z,951.37
2019-01-16T11:38:03.703Z,951.53
2019-01-16T11:40:30.019Z,951.48
2019-01-16T11:42:56.330Z,951.46
2019-01-16T11:45:22.648Z,951.45
2019-01-16T11:47:48.949Z,951.51
2019-01-16T11:50:15.244Z,951.58
2019-01-16T11:52:41.566Z,951.54
2019-01-16T11:55:07.882Z,951.49
2019-01-16T11:57:34.182Z,951.42
2019-01-16T12:00:00.501Z,951.41
2019-01-16T12:02:26.814Z,951.40
2019-01-16T12:04:53.113Z,951.35
2019-01-16T12:07:19.416Z,951.27
2019-01-16T12:09:45.739Z,951.22
2019-01-16T12:12:12.075Z,951.27
2019-01-16T12:14:38.427Z,951.30
2019-01-16T12:17:04.684Z,951.24
2019-01-16T12:19:30.994Z,951.30
2019-01-16T12:21:57.296Z,951.30
2019-01-16T12:24:23.617Z,951.28
2019-01-16T12:26:49.946Z,951.39
2019-01-16T12:29:16.246Z,951.33
2019-01-16T12:31:42.562Z,951.35
2019-01-16T12:34:08.902Z,951.38
2019-01-16T12:36:35.247Z,951.44
2019-01-16T12:39:01.689Z,951.50
2019-01-16T12:41:28.004Z,951.49
2019-01-16T12:43:54.312Z,951.57
2019-01-16T12:46:20.682Z,951.53
2019-01-16T12:48:46.955Z,951.52
2019-01-16T12:51:13.258Z,951.64
2019-01-16T12:53:39.566Z,951.52
2019-01-16T12:56:05.886Z,951.48
2019-01-16T12:58:34.441Z,951.63
2019-01-16T13:00:58.691Z,951.61
2019-01-16T13:03:25.109Z,951.68
2019-01-16T13:05:51.449Z,951.69
2019-01-16T13:08:17.756Z,951.59
2019-01-16T13:10:44.067Z,951.56
2019-01-16T13:13:10.379Z,951.63
2019-01-16T13:15:36.730Z,951.59
2019-01-16T13:18:03.029Z,951.63
2019-01-16T13:20:29.318Z,951.66
2019-01-16T13:22:55.677Z,951.61
2019-01-16T13:25:21.954Z,951.59
2019-01-16T13:27:48.275Z,951.61
2019-01-16T13:30:14.582Z,951.59
2019-01-16T13:32:40.956Z,951.65
2019-01-16T13:35:07.703Z,951.55
2019-01-16T13:37:34.250Z,951.67
2019-01-16T13:40:00.551Z,951.58
2019-01-16T13:42:26.862Z,951.63
2019-01-16T13:44:53.174Z,951.56
2019-01-16T13:47:19.479Z,951.61
2019-01-16T13:49:45.835Z,951.60
2019-01-16T13:52:12.149Z,951.59
2019-01-16T13:54:38.651Z,951.58
2019-01-16T13:57:05.105Z,951.61
2019-01-16T13:59:31.411Z,951.56
2019-01-16T14:01:57.719Z,951.64
2019-01-16T14:04:24.010Z,951.58
2019-01-16T14:06:50.330Z,951.67
2019-01-16T14:09:16.628Z,951.71
2019-01-16T14:11:43.005Z,951.84
2019-01-16T14:14:09.317Z,951.76
2019-01-16T14:16:35.613Z,951.84
2019-01-16T14:19:02.084Z,951.83
2019-01-16T14:21:28.379Z,951.73
2019-01-16T14:23:54.679Z,951.76
2019-01-16T14:26:20.983Z,951.71
2019-01-16T14:28:47.274Z,951.74
2019-01-16T14:31:13.626Z,951.68
2019-01-16T14:33:39.925Z,951.73
2019-01-16T14:36:06.220Z,951.76
2019-01-16T14:38:32.514Z,951.89
2019-01-16T14:40:58.812Z,951.89
2019-01-16T14:43:25.121Z,951.85
2019-01-16T14:45:51.454Z,951.82
2019-01-16T14:48:17.819Z,951.79
2019-01-16T14:50:44.107Z,951.72
2019-01-16T14:53:10.389Z,951.82
2019-01-16T14:55:36.704Z,951.81
2019-01-16T14:58:03.010Z,951.88
2019-01-16T15:00:29.321Z,951.88
2019-01-16T15:02:55.635Z,951.95
2019-01-16T15:05:21.962Z,951.94
2019-01-16T15:07:48.574Z,951.97
2019-01-16T15:10:14.865Z,951.99
2019-01-16T15:12:41.167Z,952.09
2019-01-16T15:15:09.799Z,952.13
2019-01-16T15:17:33.793Z,951.94
2019-01-16T15:20:00.222Z,952.02
2019-01-16T15:22:26.446Z,952.09
2019-01-16T15:24:52.763Z,952.08
2019-01-16T15:27:19.094Z,952.14
2019-01-16T15:29:45.389Z,952.23
2019-01-16T15:32:11.748Z,952.27
2019-01-16T15:34:38.106Z,952.31
2019-01-16T15:37:04.405Z,952.27
2019-01-16T15:39:30.713Z,952.30
2019-01-16T15:41:57.081Z,952.32
2019-01-16T15:44:23.384Z,952.26
2019-01-16T15:46:49.731Z,952.32
2019-01-16T15:49:16.041Z,952.43
2019-01-16T15:51:42.341Z,952.44
2019-01-16T15:54:08.639Z,952.49
2019-01-16T15:56:34.932Z,952.47
2019-01-16T15:59:01.291Z,952.47
2019-01-16T16:01:27.608Z,952.40
2019-01-16T16:03:53.920Z,952.44
2019-01-16T16:06:20.236Z,952.35
2019-01-16T16:08:46.578Z,952.40
2019-01-16T16:11:12.850Z,952.42
2019-01-16T16:13:39.169Z,952.44
2019-01-16T16:16:05.482Z,952.52
2019-01-16T16:18:31.775Z,952.52
2019-01-16T16:20:58.097Z,952.53
2019-01-16T16:23:24.395Z,952.49
2019-01-16T16:25:50.694Z,952.55
2019-01-16T16:28:17.008Z,952.41
2019-01-16T16:30:43.307Z,952.52
2019-01-16T16:33:09.610Z,952.52
2019-01-16T16:35:35.924Z,952.47
2019-01-16T16:38:02.245Z,952.41
2019-01-16T16:40:28.532Z,952.47
2019-01-16T16:42:54.830Z,952.39
2019-01-16T16:45:21.135Z,952.37
2019-01-16T16:47:47.442Z,952.37
2019-01-16T16:50:13.756Z,952.42
2019-01-16T16:52:40.070Z,952.38
2019-01-16T16:55:06.377Z,952.46
2019-01-16T16:57:32.671Z,952.39
2019-01-16T16:59:58.974Z,952.48
2019-01-16T17:02:25.279Z,952.50
2019-01-16T17:04:51.614Z,952.53
2019-01-16T17:07:17.920Z,952.51
2019-01-16T17:09:44.220Z,952.59
2019-01-16T17:12:10.521Z,952.65
2019-01-16T17:14:36.832Z,952.72
2019-01-16T17:17:03.140Z,952.75
2019-01-16T17:19:29.441Z,952.80
2019-01-16T17:21:55.755Z,952.80
2019-01-16T17:24:22.088Z,952.77
2019-01-16T17:26:48.501Z,952.82
2019-01-16T17:29:14.794Z,952.77
2019-01-16T17:31:41.110Z,952.75
2019-01-16T17:34:07.463Z,952.75
2019-01-16T17:36:35.808Z,952.65
2019-01-16T17:39:00.270Z,952.77
2019-01-16T17:41:26.550Z,952.76
2019-01-16T17:43:52.878Z,952.83
2019-01-16T17:46:19.314Z,952.79
2019-01-16T17:48:45.715Z,952.78
2019-01-16T17:51:12.011Z,952.84
2019-01-16T17:53:38.321Z,952.84
2019-01-16T17:56:04.628Z,952.85
2019-01-16T17:58:30.954Z,952.88
2019-01-16T18:00:57.406Z,952.93
2019-01-16T18:03:23.687Z,952.96
2019-01-16T18:05:50.310Z,952.92
2019-01-16T18:08:16.610Z,952.92
2019-01-16T18:10:42.908Z,952.93
2019-01-16T18:13:09.203Z,952.96
2019-01-16T18:15:35.529Z,952.89
2019-01-16T18:18:01.868Z,952.90
2019-01-16T18:20:28.232Z,952.94
2019-01-16T18:22:54.570Z,952.97
2019-01-16T18:25:20.877Z,953.00
2019-01-16T18:27:47.230Z,953.01
2019-01-16T18:30:13.525Z,953.02
2019-01-16T18:32:39.837Z,952.95
2019-01-16T18:35:06.209Z,953.08
2019-01-16T18:37:35.105Z,953.17
2019-01-16T18:40:01.401Z,953.16
2019-01-16T18:42:27.763Z,953.15
2019-01-16T18:44:54.060Z,953.22
2019-01-16T18:47:20.397Z,953.14
2019-01-16T18:49:46.705Z,953.33
2019-01-16T18:52:13.040Z,953.32
2019-01-16T18:54:39.350Z,953.33
2019-01-16T18:57:05.652Z,953.30
2019-01-16T18:59:32.110Z,953.26
2019-01-16T19:02:03.086Z,953.32
2019-01-16T19:04:29.520Z,953.33
2019-01-16T19:06:55.821Z,953.39
2019-01-16T19:09:22.133Z,953.45
2019-01-16T19:11:48.443Z,953.42
2019-01-16T19:14:14.750Z,953.52
2019-01-16T19:16:41.060Z,953.51
2019-01-16T19:19:07.379Z,953.59
2019-01-16T19:21:33.678Z,953.66
2019-01-16T19:23:59.980Z,953.70
2019-01-16T19:26:26.316Z,953.72
2019-01-16T19:28:52.635Z,953.81
2019-01-16T19:31:18.936Z,953.77
2019-01-16T19:33:45.229Z,953.76
2019-01-16T19:36:11.583Z,953.76
2019-01-16T19:38:37.864Z,953.77
2019-01-16T19:41:04.182Z,953.79
2019-01-16T19:43:30.529Z,953.80
2019-01-16T19:45:56.830Z,953.84
2019-01-16T19:48:23.138Z,953.89
2019-01-16T19:50:49.501Z,953.92
2019-01-16T19:53:17.904Z,953.94
2019-01-16T19:55:44.241Z,953.97
2019-01-16T19:58:10.823Z,953.94
2019-01-16T20:00:37.117Z,953.93
2019-01-16T20:03:03.420Z,953.95
2019-01-16T20:05:29.769Z,953.92
2019-01-16T20:07:57.781Z,953.99
2019-01-16T20:10:22.770Z,954.02
2019-01-16T20:12:49.063Z,954.01
2019-01-16T20:15:15.370Z,954.01
2019-01-16T20:17:41.668Z,953.98
2019-01-16T20:20:07.978Z,953.99
2019-01-16T20:22:34.290Z,953.98
2019-01-16T20:25:00.595Z,953.98
2019-01-16T20:27:26.952Z,954.03
2019-01-16T20:29:53.280Z,954.08
2019-01-16T20:32:19.567Z,954.08
2019-01-16T20:34:48.516Z,954.20
2019-01-16T20:37:13.433Z,954.22
2019-01-16T20:39:38.522Z,954.19
2019-01-16T20:42:04.826Z,954.22
2019-01-16T20:44:31.344Z,954.21
2019-01-16T20:47:00.510Z,954.22
2019-01-16T20:49:26.888Z,954.24
2019-01-16T20:51:53.208Z,954.29
2019-01-16T20:54:19.568Z,954.30
2019-01-16T20:56:45.817Z,954.29
2019-01-16T20:59:12.371Z,954.36
2019-01-16T21:01:38.641Z,954.40
2019-01-16T21:04:06.473Z,954.43
2019-01-16T21:06:31.389Z,954.43
2019-01-16T21:08:57.686Z,954.37
2019-01-16T21:11:24.017Z,954.43
2019-01-16T21:13:50.334Z,954.41
2019-01-16T21:16:16.631Z,954.43
2019-01-16T21:18:42.943Z,954.30
2019-01-16T21:21:09.248Z,954.46
2019-01-16T21:23:35.584Z,954.53
2019-01-16T21:26:01.898Z,954.47
2019-01-16T21:28:28.235Z,954.39
2019-01-16T21:30:54.587Z,954.52
2019-01-16T21:33:20.897Z,954.51
2019-01-16T21:35:49.197Z,954.60
2019-01-16T21:38:13.731Z,954.60
2019-01-16T21:40:42.267Z,954.56
2019-01-16T21:43:08.569Z,954.56
2019-01-16T21:45:34.872Z,954.74
2019-01-16T21:48:01.167Z,954.65
2019-01-16T21:50:27.528Z,954.71
2019-01-16T21:52:53.891Z,954.73
2019-01-16T21:55:20.170Z,954.67
2019-01-16T21:57:46.471Z,954.66
2019-01-16T22:00:12.804Z,954.68
2019-01-16T22:02:39.121Z,954.65
2019-01-16T22:05:05.446Z,954.68
2019-01-16T22:07:31.760Z,954.60
2019-01-16T22:09:58.059Z,954.63
2019-01-16T22:12:24.361Z,954.51
2019-01-16T22:14:50.667Z,954.56
2019-01-16T22:17:16.991Z,954.62
2019-01-16T22:19:43.302Z,954.53
2019-01-16T22:22:09.608Z,954.65
2019-01-16T22:24:35.913Z,954.60
2019-01-16T22:27:02.224Z,954.62
2019-01-16T22:29:28.550Z,954.56
2019-01-16T22:31:54.838Z,954.59
2019-01-16T22:34:21.137Z,954.62
2019-01-16T22:36:47.448Z,954.61
2019-01-16T22:39:13.770Z,954.64
2019-01-16T22:41:40.088Z,954.62
2019-01-16T22:44:06.399Z,954.62
2019-01-16T22:46:32.700Z,954.62
2019-01-16T22:48:59.011Z,954.59
2019-01-16T22:51:25.315Z,954.56
2019-01-16T22:53:51.682Z,954.66
2019-01-16T22:56:17.992Z,954.55
2019-01-16T22:58:44.279Z,954.53
2019-01-16T23:01:10.603Z,954.51
2019-01-16T23:03:36.896Z,954.59
2019-01-16T23:06:03.220Z,954.47
2019-01-16T23:08:29.537Z,954.43
2019-01-16T23:10:55.853Z,954.44
2019-01-16T23:13:22.166Z,954.48
2019-01-16T23:15:48.469Z,954.40
2019-01-16T23:18:14.781Z,954.40
2019-01-16T23:20:41.077Z,954.44
2019-01-16T23:23:07.385Z,954.40
2019-01-16T23:25:33.714Z,954.43
2019-01-16T23:28:00.025Z,954.44
2019-01-16T23:30:26.324Z,954.48
2019-01-16T23:32:52.624Z,954.45
2019-01-16T23:35:18.933Z,954.44
2019-01-16T23:37:45.228Z,954.49
2019-01-16T23:40:11.534Z,954.47
2019-01-16T23:42:37.839Z,954.42
2019-01-16T23:45:04.156Z,954.49
2019-01-16T23:47:30.463Z,954.52
2019-01-16T23:49:56.779Z,954.48
2019-01-16T23:52:23.096Z,954.55
2019-01-16T23:54:49.404Z,954.56
2019-01-16T23:57:15.705Z,954.57
2019-01-16T23:59:42.023Z,954.53
